createdAt,value
2022-12-29T00:02:11.826Z,95536.34
2022-12-29T00:04:38.871Z,95537.69
2022-12-29T00:07:07.187Z,95531.88
2022-12-29T00:09:35.294Z,95534.28
2022-12-29T00:12:03.717Z,95531.38
2022-12-29T00:14:49.445Z,95533.47
2022-12-29T00:17:16.646Z,95536.16
2022-12-29T00:20:04.024Z,95544.72
2022-12-29T00:22:49.432Z,95556.50
2022-12-29T00:25:35.168Z,95553.38
2022-12-29T00:28:20.599Z,95557.41
2022-12-29T00:31:06.176Z,95551.81
2022-12-29T00:33:53.688Z,95554.78
2022-12-29T00:36:29.077Z,95556.41
2022-12-29T00:39:21.381Z,95555.91
2022-12-29T00:42:12.812Z,95564.97
2022-12-29T00:44:39.911Z,95562.19
2022-12-29T00:47:06.937Z,95569.84
2022-12-29T00:49:34.499Z,95561.78
2022-12-29T00:52:08.357Z,95563.81
2022-12-29T00:54:38.141Z,95570.22
2022-12-29T00:57:07.755Z,95563.56
2022-12-29T00:59:40.088Z,95567.88
2022-12-29T01:02:07.926Z,95565.69
2022-12-29T01:04:35.501Z,95569.09
2022-12-29T01:07:02.545Z,95561.09
2022-12-29T01:09:47.912Z,95557.94
2022-12-29T01:12:15.435Z,95556.63
2022-12-29T01:14:42.568Z,95556.06
2022-12-29T01:17:09.779Z,95555.75
2022-12-29T01:19:36.990Z,95557.63
2022-12-29T01:22:04.128Z,95552.03
2022-12-29T01:24:31.257Z,95552.84
2022-12-29T01:26:58.328Z,95545.16
2022-12-29T01:29:25.564Z,95550.97
2022-12-29T01:31:52.709Z,95546.59
2022-12-29T01:34:19.924Z,95543.94
2022-12-29T01:36:46.947Z,95535.94
2022-12-29T01:39:14.484Z,95525.25
2022-12-29T01:41:41.644Z,95526.41
2022-12-29T01:44:48.773Z,95530.69
2022-12-29T01:47:39.772Z,95525.59
2022-12-29T01:50:21.720Z,95522.13
2022-12-29T01:53:00.057Z,95521.88
2022-12-29T01:55:30.752Z,95524.28
2022-12-29T01:58:02.214Z,95522.69
2022-12-29T02:00:31.348Z,95523.22
2022-12-29T02:02:58.469Z,95517.09
2022-12-29T02:05:53.091Z,95517.09
2022-12-29T02:08:24.932Z,95517.34
2022-12-29T02:10:52.192Z,95515.72
2022-12-29T02:13:25.867Z,95509.59
2022-12-29T02:16:39.193Z,95511.19
2022-12-29T02:19:44.962Z,95508.53
2022-12-29T02:22:46.617Z,95508.78
2022-12-29T02:25:48.782Z,95510.84
2022-12-29T02:29:10.654Z,95509.25
2022-12-29T02:31:55.017Z,95512.41
2022-12-29T02:35:35.943Z,95515.88
2022-12-29T02:38:21.072Z,95511.84
2022-12-29T02:57:34.309Z,95511.66
2022-12-29T03:00:09.570Z,95502.84
2022-12-29T03:03:12.860Z,95493.41
2022-12-29T03:12:50.941Z,95492.94
2022-12-29T03:15:44.827Z,95482.22
2022-12-29T03:18:20.914Z,95491.03
2022-12-29T03:21:03.913Z,95476.31
2022-12-29T03:23:33.649Z,95481.66
2022-12-29T03:26:05.390Z,95482.16
2022-12-29T03:28:38.948Z,95489.03
2022-12-29T03:31:09.360Z,95489.28
2022-12-29T03:33:39.182Z,95484.75
2022-12-29T03:36:11.283Z,95489.03
2022-12-29T03:39:18.274Z,95485.81
2022-12-29T03:41:47.314Z,95493.22
2022-12-29T03:44:14.808Z,95498.47
2022-12-29T03:46:41.915Z,95498.97
2022-12-29T03:49:09.386Z,95499.78
2022-12-29T03:51:36.484Z,95503.19
2022-12-29T03:54:05.974Z,95511.34
2022-12-29T03:56:33.692Z,95508.03
2022-12-29T03:59:03.499Z,95512.22
2022-12-29T04:01:39.507Z,95512.41
2022-12-29T04:04:08.171Z,95506.41
2022-12-29T04:06:36.121Z,95518.34
2022-12-29T04:09:07.635Z,95514.31
2022-12-29T04:11:40.158Z,95516.91
2022-12-29T04:14:07.760Z,95500.91
2022-12-29T04:16:36.951Z,95505.75
2022-12-29T04:19:06.718Z,95512.38
2022-12-29T04:21:36.057Z,95509.16
2022-12-29T04:24:03.273Z,95509.16
2022-12-29T04:26:32.121Z,95513.00
2022-12-29T04:29:07.352Z,95517.66
2022-12-29T04:31:47.314Z,95522.81
2022-12-29T04:34:15.015Z,95523.28
2022-12-29T04:36:42.136Z,95528.28
2022-12-29T04:39:09.344Z,95526.66
2022-12-29T04:41:38.356Z,95531.19
2022-12-29T04:44:08.739Z,95530.03
2022-12-29T04:47:01.827Z,95530.38
2022-12-29T04:49:51.070Z,95533.94
2022-12-29T04:52:40.188Z,95541.69
2022-12-29T04:55:10.145Z,95542.50
2022-12-29T04:57:37.411Z,95543.06
2022-12-29T05:00:07.631Z,95546.31
2022-12-29T05:02:38.222Z,95548.50
2022-12-29T05:05:06.718Z,95555.78
2022-12-29T05:07:36.179Z,95554.47
2022-12-29T05:10:03.571Z,95554.00
2022-12-29T05:12:35.148Z,95555.13
2022-12-29T05:15:04.018Z,95561.28
2022-12-29T05:17:31.564Z,95553.88
2022-12-29T05:19:58.537Z,95552.59
2022-12-29T05:22:26.407Z,95554.44
2022-12-29T05:24:55.236Z,95553.88
2022-12-29T05:27:23.123Z,95547.16
2022-12-29T05:30:07.450Z,95553.28
2022-12-29T05:32:35.271Z,95549.59
2022-12-29T05:35:02.321Z,95547.75
2022-12-29T05:37:30.100Z,95555.13
2022-12-29T05:39:57.253Z,95546.56
2022-12-29T05:42:24.442Z,95553.53
2022-12-29T05:44:56.829Z,95551.41
2022-12-29T05:47:32.375Z,95559.41
2022-12-29T05:50:20.323Z,95550.84
2022-12-29T05:53:05.654Z,95554.56
2022-12-29T05:55:32.969Z,95556.75
2022-12-29T05:58:00.593Z,95563.47
2022-12-29T06:00:27.731Z,95563.25
2022-12-29T06:02:58.028Z,95556.31
2022-12-29T06:05:51.799Z,95559.53
2022-12-29T06:08:19.348Z,95569.22
2022-12-29T06:10:48.531Z,95565.03
2022-12-29T06:13:15.855Z,95573.13
2022-12-29T06:15:45.920Z,95562.22
2022-12-29T06:18:19.618Z,95568.38
2022-12-29T06:20:47.709Z,95570.53
2022-12-29T06:23:17.755Z,95571.13
2022-12-29T06:25:44.826Z,95572.72
2022-12-29T06:28:12.906Z,95575.41
2022-12-29T06:30:39.979Z,95579.69
2022-12-29T06:33:09.420Z,95578.13
2022-12-29T06:35:36.573Z,95575.34
2022-12-29T06:38:04.443Z,95574.38
2022-12-29T06:40:31.454Z,95573.16
2022-12-29T06:43:11.758Z,95574.53
2022-12-29T06:45:46.626Z,95573.47
2022-12-29T06:48:13.956Z,95573.94
2022-12-29T06:50:40.974Z,95573.94
2022-12-29T06:53:08.466Z,95583.81
2022-12-29T06:55:35.439Z,95591.31
2022-12-29T06:58:02.537Z,95583.44
2022-12-29T07:00:29.605Z,95583.19
2022-12-29T07:02:59.398Z,95584.81
2022-12-29T07:05:28.944Z,95582.84
2022-12-29T07:07:56.635Z,95584.81
2022-12-29T07:10:24.642Z,95587.53
2022-12-29T07:12:51.677Z,95591.19
2022-12-29T07:15:19.158Z,95587.84
2022-12-29T07:17:47.013Z,95583.00
2022-12-29T07:20:14.957Z,95587.38
2022-12-29T07:22:42.202Z,95586.50
2022-12-29T07:25:10.411Z,95584.81
2022-12-29T07:27:37.535Z,95583.41
2022-12-29T07:30:06.437Z,95585.00
2022-12-29T07:32:36.307Z,95588.59
2022-12-29T07:35:06.492Z,95588.16
2022-12-29T07:37:36.892Z,95584.38
2022-12-29T07:40:05.219Z,95585.75
2022-12-29T07:42:33.113Z,95594.38
2022-12-29T07:45:01.787Z,95590.50
2022-12-29T07:47:36.491Z,95586.16
2022-12-29T07:50:04.293Z,95591.06
2022-12-29T07:52:31.443Z,95584.75
2022-12-29T07:54:58.425Z,95588.53
2022-12-29T07:57:31.504Z,95592.00
2022-12-29T08:00:01.644Z,95593.16
2022-12-29T08:02:40.786Z,95586.59
2022-12-29T08:05:10.122Z,95593.94
2022-12-29T08:07:37.274Z,95603.94
2022-12-29T08:10:04.971Z,95602.94
2022-12-29T08:12:32.040Z,95606.75
2022-12-29T08:14:59.396Z,95597.25
2022-12-29T08:17:26.749Z,95591.47
2022-12-29T08:19:55.109Z,95590.53
2022-12-29T08:22:22.923Z,95605.88
2022-12-29T08:24:49.906Z,95595.50
2022-12-29T08:27:20.792Z,95601.16
2022-12-29T08:29:49.084Z,95592.94
2022-12-29T08:32:17.335Z,95601.09
2022-12-29T08:34:44.364Z,95608.13
2022-12-29T08:37:12.199Z,95597.94
2022-12-29T08:39:39.668Z,95603.28
2022-12-29T08:42:07.493Z,95599.56
2022-12-29T08:44:34.497Z,95606.81
2022-12-29T08:47:01.631Z,95601.72
2022-12-29T08:49:28.686Z,95609.94
2022-12-29T08:51:55.654Z,95604.28
2022-12-29T08:54:22.759Z,95597.19
2022-12-29T08:56:50.164Z,95596.59
2022-12-29T08:59:18.826Z,95596.13
2022-12-29T09:01:48.364Z,95592.16
2022-12-29T09:04:17.344Z,95586.91
2022-12-29T09:06:46.488Z,95586.16
2022-12-29T09:09:14.143Z,95579.25
2022-12-29T09:11:41.398Z,95580.78
2022-12-29T09:14:08.931Z,95578.31
2022-12-29T09:16:36.856Z,95581.03
2022-12-29T09:19:04.516Z,95571.44
2022-12-29T09:21:31.718Z,95566.09
2022-12-29T09:23:58.936Z,95560.81
2022-12-29T09:26:26.389Z,95563.78
2022-12-29T09:28:53.933Z,95562.75
2022-12-29T09:31:21.286Z,95563.06
2022-12-29T09:33:48.909Z,95557.44
2022-12-29T09:36:16.022Z,95553.94
2022-12-29T09:38:43.501Z,95547.25
2022-12-29T09:41:30.635Z,95551.28
2022-12-29T09:44:26.535Z,95543.56
2022-12-29T09:46:57.398Z,95543.06
2022-12-29T09:49:33.481Z,95544.94
2022-12-29T09:52:15.899Z,95540.16
2022-12-29T09:55:02.919Z,95540.19
2022-12-29T09:57:37.288Z,95530.81
2022-12-29T10:00:13.996Z,95532.69
2022-12-29T10:02:45.239Z,95529.19
2022-12-29T10:05:35.427Z,95525.47
2022-12-29T10:08:39.073Z,95515.00
2022-12-29T10:11:33.819Z,95514.72
2022-12-29T10:14:27.589Z,95515.00
2022-12-29T10:17:23.924Z,95509.88
2022-12-29T10:20:33.684Z,95515.25
2022-12-29T10:23:38.343Z,95511.75
2022-12-29T10:26:13.060Z,95506.41
2022-12-29T10:29:04.932Z,95507.44
2022-12-29T10:32:04.602Z,95494.00
2022-12-29T10:34:38.831Z,95492.13
2022-12-29T10:37:18.830Z,95496.13
2022-12-29T10:39:56.483Z,95490.22
2022-12-29T10:42:38.049Z,95489.94
2022-12-29T10:45:06.428Z,95476.19
2022-12-29T10:47:43.621Z,95485.25
2022-12-29T10:50:14.309Z,95481.97
2022-12-29T10:52:42.249Z,95478.16
2022-12-29T10:55:16.387Z,95479.16
2022-12-29T10:57:47.099Z,95474.53
2022-12-29T11:00:21.756Z,95466.19
2022-12-29T11:03:40.735Z,95458.63
2022-12-29T11:06:16.764Z,95466.88
2022-12-29T11:08:53.719Z,95455.94
2022-12-29T11:11:49.992Z,95445.09
2022-12-29T11:14:22.758Z,95451.38
2022-12-29T11:17:07.573Z,95446.94
2022-12-29T11:19:40.745Z,95440.59
2022-12-29T11:22:29.717Z,95438.94
2022-12-29T11:25:11.478Z,95445.63
2022-12-29T11:27:38.433Z,95444.81
2022-12-29T11:30:25.004Z,95448.97
2022-12-29T11:32:54.452Z,95442.16
2022-12-29T11:35:41.948Z,95449.34
2022-12-29T11:38:36.529Z,95447.75
2022-12-29T11:41:06.055Z,95438.13
2022-12-29T11:43:36.892Z,95437.09
2022-12-29T11:46:05.345Z,95433.91
2022-12-29T11:48:42.862Z,95427.53
2022-12-29T11:51:12.769Z,95428.00
2022-12-29T11:53:45.440Z,95428.22
2022-12-29T11:56:17.183Z,95426.28
2022-12-29T11:58:45.134Z,95429.03
2022-12-29T12:01:40.881Z,95430.41
2022-12-29T12:04:19.901Z,95426.09
2022-12-29T12:07:31.217Z,95417.75
2022-12-29T12:10:07.302Z,95412.06
2022-12-29T12:12:53.014Z,95412.72
2022-12-29T12:15:29.574Z,95415.47
2022-12-29T12:18:11.706Z,95404.41
2022-12-29T12:20:52.033Z,95407.63
2022-12-29T12:24:00.426Z,95406.03
2022-12-29T12:26:40.554Z,95404.13
2022-12-29T12:29:21.534Z,95396.56
2022-12-29T12:31:55.643Z,95399.47
2022-12-29T12:34:52.295Z,95397.75
2022-12-29T12:38:04.120Z,95393.94
2022-12-29T12:40:39.499Z,95395.03
2022-12-29T12:43:51.826Z,95394.25
2022-12-29T12:46:45.104Z,95393.44
2022-12-29T12:49:38.467Z,95399.34
2022-12-29T12:52:39.278Z,95394.88
2022-12-29T12:55:33.157Z,95395.75
2022-12-29T12:58:51.359Z,95394.94
2022-12-29T13:02:02.527Z,95396.25
2022-12-29T13:05:07.434Z,95386.56
2022-12-29T13:08:01.627Z,95383.69
2022-12-29T13:11:00.645Z,95382.41
2022-12-29T13:14:14.280Z,95390.56
2022-12-29T13:17:11.196Z,95395.44
2022-12-29T13:20:23.938Z,95384.88
2022-12-29T13:23:16.639Z,95388.09
2022-12-29T13:26:42.757Z,95390.44
2022-12-29T13:39:18.956Z,95405.22
2022-12-29T13:41:52.625Z,95408.50
2022-12-29T13:44:28.064Z,95400.03
2022-12-29T13:47:01.609Z,95402.53
2022-12-29T13:49:29.851Z,95403.44
2022-12-29T13:51:59.668Z,95406.72
2022-12-29T13:55:19.384Z,95400.31
2022-12-29T13:58:05.087Z,95400.88
2022-12-29T14:00:59.686Z,95396.53
2022-12-29T14:03:53.882Z,95402.94
2022-12-29T14:06:42.621Z,95402.63
2022-12-29T14:09:57.596Z,95414.22
2022-12-29T14:12:45.133Z,95406.31
2022-12-29T14:15:23.632Z,95407.22
2022-12-29T14:18:42.900Z,95416.44
2022-12-29T14:21:31.165Z,95417.84
2022-12-29T14:24:55.303Z,95431.59
2022-12-29T14:27:45.215Z,95424.59
2022-12-29T14:30:47.913Z,95427.00
2022-12-29T14:33:16.253Z,95432.16
2022-12-29T14:35:47.134Z,95433.50
2022-12-29T14:38:23.486Z,95430.09
2022-12-29T14:40:51.381Z,95428.53
2022-12-29T14:43:27.455Z,95427.56
2022-12-29T14:45:59.266Z,95426.28
2022-12-29T14:48:44.694Z,95435.69
2022-12-29T14:51:40.683Z,95430.06
2022-12-29T14:54:42.615Z,95443.50
2022-12-29T14:57:34.176Z,95439.75
2022-12-29T15:00:05.790Z,95439.81
2022-12-29T15:02:42.749Z,95437.13
2022-12-29T15:05:27.667Z,95431.78
2022-12-29T15:07:57.653Z,95433.91
2022-12-29T15:10:27.330Z,95431.22
2022-12-29T15:12:56.324Z,95425.88
2022-12-29T15:15:29.658Z,95423.75
2022-12-29T15:17:57.437Z,95419.44
2022-12-29T15:20:32.896Z,95420.00
2022-12-29T15:23:04.721Z,95414.63
2022-12-29T15:25:32.788Z,95411.97
2022-12-29T15:28:06.370Z,95421.88
2022-12-29T15:30:34.203Z,95420.81
2022-12-29T15:33:01.661Z,95418.38
2022-12-29T15:35:37.492Z,95421.88
2022-12-29T15:38:40.394Z,95409.28
2022-12-29T15:41:21.291Z,95419.44
2022-12-29T15:44:03.446Z,95416.22
2022-12-29T15:46:32.607Z,95432.31
2022-12-29T15:48:59.739Z,95429.09
2022-12-29T15:51:38.613Z,95417.03
2022-12-29T15:54:07.206Z,95421.59
2022-12-29T15:56:34.820Z,95413.25
2022-12-29T15:59:02.261Z,95412.72
2022-12-29T16:01:37.554Z,95417.81
2022-12-29T16:04:07.981Z,95415.16
2022-12-29T16:06:37.950Z,95409.50
2022-12-29T16:09:36.740Z,95412.97
2022-12-29T16:12:08.016Z,95414.03
2022-12-29T16:14:44.269Z,95417.22
2022-12-29T16:17:17.032Z,95423.66
2022-12-29T16:19:52.993Z,95420.16
2022-12-29T16:22:35.132Z,95414.53
2022-12-29T16:25:14.655Z,95424.16
2022-12-29T16:27:43.643Z,95419.84
2022-12-29T16:30:33.467Z,95423.06
2022-12-29T16:33:03.877Z,95431.91
2022-12-29T16:35:41.165Z,95429.75
2022-12-29T16:38:22.928Z,95433.22
2022-12-29T16:41:04.075Z,95435.91
2022-12-29T16:43:38.939Z,95436.19
2022-12-29T16:46:24.084Z,95426.81
2022-12-29T16:48:54.858Z,95429.47
2022-12-29T16:51:32.218Z,95436.41
2022-12-29T16:54:00.651Z,95434.25
2022-12-29T16:56:31.667Z,95445.50
2022-12-29T16:59:10.092Z,95437.72
2022-12-29T17:01:40.231Z,95449.75
2022-12-29T17:04:11.646Z,95452.44
2022-12-29T17:06:39.373Z,95443.31
2022-12-29T17:09:23.412Z,95452.41
2022-12-29T17:12:01.702Z,95451.28
2022-12-29T17:14:58.097Z,95451.81
2022-12-29T17:17:45.031Z,95453.38
2022-12-29T17:20:18.578Z,95446.34
2022-12-29T17:22:46.229Z,95443.38
2022-12-29T17:25:19.214Z,95449.50
2022-12-29T17:27:55.171Z,95443.88
2022-12-29T17:30:31.250Z,95440.41
2022-12-29T17:33:04.865Z,95451.66
2022-12-29T17:35:32.015Z,95451.66
2022-12-29T17:37:59.175Z,95448.66
2022-12-29T17:40:29.382Z,95444.69
2022-12-29T17:42:58.472Z,95444.16
2022-12-29T17:45:31.146Z,95449.53
2022-12-29T17:48:02.761Z,95445.53
2022-12-29T17:50:31.758Z,95440.47
2022-12-29T17:53:03.240Z,95447.75
2022-12-29T17:55:37.095Z,95435.66
2022-12-29T17:58:34.006Z,95436.22
2022-12-29T18:01:03.235Z,95438.38
2022-12-29T18:03:35.827Z,95433.06
2022-12-29T18:06:06.802Z,95431.19
2022-12-29T18:08:35.807Z,95432.00
2022-12-29T18:11:02.919Z,95434.69
2022-12-29T18:13:41.957Z,95432.81
2022-12-29T18:16:13.643Z,95428.25
2022-12-29T18:18:40.885Z,95425.03
2022-12-29T18:21:16.859Z,95423.44
2022-12-29T18:23:43.988Z,95429.31
2022-12-29T18:26:28.031Z,95430.97
2022-12-29T18:28:57.011Z,95430.97
2022-12-29T18:31:34.644Z,95425.81
2022-12-29T18:34:07.638Z,95425.00
2022-12-29T18:36:34.846Z,95430.88
2022-12-29T18:39:01.907Z,95428.50
2022-12-29T18:41:32.364Z,95426.53
2022-12-29T18:44:00.239Z,95432.13
2022-12-29T18:46:27.723Z,95432.94
2022-12-29T18:48:55.145Z,95435.03
2022-12-29T18:51:25.973Z,95426.97
2022-12-29T18:53:54.698Z,95419.19
2022-12-29T18:56:23.248Z,95435.78
2022-12-29T18:58:51.255Z,95436.34
2022-12-29T19:01:23.778Z,95434.47
2022-12-29T19:03:51.428Z,95433.41
2022-12-29T19:06:19.736Z,95433.66
2022-12-29T19:08:47.096Z,95424.84
2022-12-29T19:11:14.151Z,95432.84
2022-12-29T19:13:41.290Z,95432.84
2022-12-29T19:16:17.329Z,95419.22
2022-12-29T19:18:48.733Z,95429.13
2022-12-29T19:21:22.107Z,95422.47
2022-12-29T19:23:49.857Z,95427.56
2022-12-29T19:26:31.798Z,95430.53
2022-12-29T19:29:00.164Z,95429.13
2022-12-29T19:31:27.514Z,95429.63
2022-12-29T19:33:54.895Z,95430.25
2022-12-29T19:36:22.964Z,95432.41
2022-12-29T19:38:50.422Z,95426.69
2022-12-29T19:41:17.641Z,95431.25
2022-12-29T19:43:45.008Z,95437.13
2022-12-29T19:46:16.875Z,95422.69
2022-12-29T19:48:44.545Z,95432.56
2022-12-29T19:51:15.787Z,95429.34
2022-12-29T19:53:44.365Z,95438.44
2022-12-29T19:56:12.128Z,95432.28
2022-12-29T19:58:45.198Z,95437.38
2022-12-29T20:01:20.218Z,95440.41
2022-12-29T20:03:47.699Z,95436.91
2022-12-29T20:06:18.112Z,95444.09
2022-12-29T20:08:45.893Z,95445.97
2022-12-29T20:11:16.524Z,95447.97
2022-12-29T20:13:43.946Z,95451.13
2022-12-29T20:16:17.490Z,95450.47
2022-12-29T20:18:45.051Z,95448.50
2022-12-29T20:21:17.768Z,95446.63
2022-12-29T20:23:45.764Z,95450.31
2022-12-29T20:26:18.852Z,95441.47
2022-12-29T20:28:46.261Z,95445.50
2022-12-29T20:31:24.006Z,95447.84
2022-12-29T20:33:51.362Z,95447.75
2022-12-29T20:36:28.853Z,95453.50
2022-12-29T20:38:57.993Z,95451.41
2022-12-29T20:41:26.546Z,95447.69
2022-12-29T20:43:54.564Z,95447.81
2022-12-29T20:46:26.358Z,95451.63
2022-12-29T20:48:59.108Z,95449.63
2022-12-29T20:51:27.028Z,95455.47
2022-12-29T20:53:54.450Z,95465.59
2022-12-29T20:56:24.429Z,95464.47
2022-12-29T20:59:25.680Z,95462.81
2022-12-29T21:01:40.342Z,95462.53
2022-12-29T21:04:08.216Z,95460.66
2022-12-29T21:06:35.963Z,95456.13
2022-12-29T21:09:03.513Z,95458.03
2022-12-29T21:11:30.790Z,95457.22
2022-12-29T21:14:01.189Z,95450.56
2022-12-29T21:16:28.961Z,95453.84
2022-12-29T21:18:56.182Z,95454.41
2022-12-29T21:21:25.500Z,95455.22
2022-12-29T21:23:53.015Z,95442.66
2022-12-29T21:26:23.425Z,95450.16
2022-12-29T21:28:51.507Z,95453.94
2022-12-29T21:31:37.235Z,95447.50
2022-12-29T21:34:06.377Z,95440.56
2022-12-29T21:36:34.232Z,95441.06
2022-12-29T21:39:03.722Z,95440.81
2022-12-29T21:41:30.896Z,95442.16
2022-12-29T21:44:17.108Z,95440.03
2022-12-29T21:46:50.025Z,95443.25
2022-12-29T21:49:17.144Z,95437.66
2022-12-29T21:51:50.194Z,95436.84
2022-12-29T21:54:38.364Z,95434.19
2022-12-29T21:57:06.104Z,95431.50
2022-12-29T21:59:52.060Z,95429.34
2022-12-29T22:02:43.749Z,95430.97
2022-12-29T22:05:32.408Z,95426.75
2022-12-29T22:08:18.346Z,95424.28
2022-12-29T22:11:06.233Z,95420.34
2022-12-29T22:13:39.086Z,95424.63
2022-12-29T22:16:08.899Z,95417.94
2022-12-29T22:18:36.884Z,95427.03
2022-12-29T22:21:08.838Z,95417.16
2022-12-29T22:23:37.938Z,95417.19
2022-12-29T22:26:10.229Z,95418.81
2022-12-29T22:28:39.037Z,95419.31
2022-12-29T22:31:07.636Z,95425.72
2022-12-29T22:33:34.704Z,95413.41
2022-12-29T22:36:01.683Z,95406.97
2022-12-29T22:38:28.665Z,95416.84
2022-12-29T22:41:00.702Z,95405.09
2022-12-29T22:43:30.135Z,95405.63
2022-12-29T22:46:07.781Z,95406.47
2022-12-29T22:48:36.364Z,95412.38
2022-12-29T22:51:03.966Z,95417.72
2022-12-29T22:53:31.310Z,95414.75
2022-12-29T22:56:06.811Z,95416.88
2022-12-29T22:58:34.058Z,95417.06
2022-12-29T23:01:01.426Z,95416.25
2022-12-29T23:03:29.249Z,95419.97
2022-12-29T23:06:05.352Z,95420.22
2022-12-29T23:08:35.731Z,95424.72
2022-12-29T23:11:03.587Z,95413.16
2022-12-29T23:13:30.969Z,95411.25
2022-12-29T23:15:58.125Z,95418.72
2022-12-29T23:18:25.461Z,95418.97
2022-12-29T23:20:52.454Z,95409.34
2022-12-29T23:23:46.507Z,95410.97
2022-12-29T23:26:20.513Z,95406.38
2022-12-29T23:28:47.853Z,95412.00
2022-12-29T23:31:15.967Z,95414.69
2022-12-29T23:33:43.201Z,95412.81
2022-12-29T23:36:10.579Z,95411.97
2022-12-29T23:38:37.601Z,95412.47
2022-12-29T23:41:04.973Z,95406.56
2022-12-29T23:43:31.961Z,95412.47
2022-12-29T23:45:58.898Z,95415.75
2022-12-29T23:48:25.919Z,95408.56
2022-12-29T23:50:52.908Z,95400.84
2022-12-29T23:53:19.910Z,95404.59
2022-12-29T23:55:53.849Z,95408.31
2022-12-29T23:58:21.029Z,95405.13
